Pine Valley, CA (91962)

12:30 AM PST on January 19, 2018 (GMT -0800)
Pine Creek Summer Tract | | Change Station
Active Advisory: Winter Weather Advisory

Elev 3747 ft 32.86 °N, 116.52 °W | Updated 11 minutes ago

Partly Cloudy
Partly Cloudy
34.5 °F
Feels Like 34 °F
N
0.0
Wind Variable Wind from ESE

Today
High -- | Low -- °F
--% Chance of Precip.
Yesterday
High -- | Low -- °F
Precip. -- in
Pressure 30.00 in
Visibility -9999.0 miles
Clouds
Windchill 34 °F
Dew Point 31 °F
Humidity 88%
Rainfall 0.00 in
Snow Depth Not available.
6:47 AM 5:06 PM
Waxing Crescent, 5% visible
METAR KCZZ 190752Z AUTO 04005KT 05/02 A3006 RMK AO1 SLP159 T00500022 402330044
Pressure 30.00 in
Visibility -9999.0 miles
Clouds
Windchill 34 °F
Dew Point 31 °F
Humidity 88%
Rainfall 0.00 in
Snow Depth Not available.
6:47 AM 5:06 PM
Waxing Crescent, 5% visible
METAR KCZZ 190752Z AUTO 04005KT 05/02 A3006 RMK AO1 SLP159 T00500022 402330044

Get Your Daily Forecast Email!

Thanks for signing up!

Be on the lookout for a verification email in your inbox.

You'll start receiving severe weather alerts in your inbox..

×

10-Day Weather Forecast

Almanac

Astronomy

Jan. 19, 2018 Rise Set
Actual Time
Civil Twilight
Nautical Twilight
Astronomical Twilight
Moon
Length of Visible Light
Length of Day
Tomorrow will be .
, % of the Moon is Illuminated

Today's Extremes

State Highs State Lows

Community

WunderPhotos

Category 6

Welcome to Category 6. This is the collective home for Weather Underground's featured writeups by Dr. Jeff Masters (right), Bob Henson (left), Chris Burt, and other regular contributors.

Nearby

Air Quality

  Air Quality AQ Index Pollutant
Not available.

Snow Depth

Station Depth Elevation

Earthquake Activity

City Distance Mag. Time & Date
Minimum magnitude displayed is 2.5.

Coastal Water Temperatures

Place Temperature

Stations

Nearby Weather Stations

Station Location Temp. Windchill Dew Point Humidity Wind Precip. Elev Updated Type
                   

Watches & Warnings

Winter Weather Advisory
Issued: 7:17 PM PST Jan. 18, 2018 – National Weather Service

... Winter Weather Advisory remains in effect from 5 PM Friday to
noon PST Saturday...

* what... gusty westerly winds and light snowfall will create
hazardous travel conditions at times.

* Where... snow falling as low as 3000 feet in the mountains by
late Friday night. Roads may become slick and snow covered.

* When... gusty winds beginning Friday afternoon with light snow
above 5000 feet. Snow level falling rapidly through the
evening.

* Additional details... areas of westerly winds 25 to 35 mph with
gusts to around 55 mph. 1 to 4 inches of snow is expected
above 4000 feet.

Precautionary/preparedness actions...

A Winter Weather Advisory means that periods of snow will cause
travel difficulties. Be prepared for slippery roads and limited
visibilities... and use caution while driving.


Gregoria